createdAt,value
2019-06-01T00:01:48.864Z,8.75
2019-06-01T00:04:18.822Z,9.60
2019-06-01T00:06:48.970Z,8.98
2019-06-01T00:09:18.623Z,9.25
2019-06-01T00:11:49.412Z,8.70
2019-06-01T00:14:19.175Z,10.08
2019-06-01T00:16:50.277Z,9.78
2019-06-01T00:19:19.897Z,10.08
2019-06-01T00:21:49.518Z,9.88
2019-06-01T00:24:19.001Z,9.63
2019-06-01T00:26:49.809Z,11.33
2019-06-01T00:29:19.405Z,10.70
2019-06-01T00:31:49.903Z,10.35
2019-06-01T00:34:19.445Z,12.40
2019-06-01T00:36:49.669Z,12.45
2019-06-01T00:39:19.249Z,12.37
2019-06-01T00:41:50.139Z,10.78
2019-06-01T00:44:19.687Z,12.18
2019-06-01T00:46:49.160Z,14.53
2019-06-01T00:49:18.672Z,14.05
2019-06-01T00:51:49.077Z,13.00
2019-06-01T00:54:18.795Z,10.43
2019-06-01T00:56:49.594Z,12.63
2019-06-01T00:59:19.307Z,13.13
2019-06-01T01:01:50.013Z,12.53
2019-06-01T01:04:19.630Z,13.70
2019-06-01T01:06:52.835Z,13.25
2019-06-01T01:09:22.411Z,12.35
2019-06-01T01:11:53.227Z,12.03
2019-06-01T01:14:22.851Z,12.63
2019-06-01T01:16:54.031Z,12.35
2019-06-01T01:19:23.475Z,11.10
2019-06-01T01:21:54.049Z,10.88
2019-06-01T01:24:23.730Z,12.55
2019-06-01T01:26:53.261Z,10.75
2019-06-01T01:29:22.704Z,11.22
2019-06-01T01:31:53.155Z,11.80
2019-06-01T01:34:22.742Z,10.28
2019-06-01T01:36:52.706Z,9.88
2019-06-01T01:39:23.387Z,10.30
2019-06-01T01:41:52.851Z,11.25
2019-06-01T01:44:22.288Z,11.43
2019-06-01T01:46:52.659Z,10.82
2019-06-01T01:49:23.239Z,10.15
2019-06-01T01:51:52.911Z,11.48
2019-06-01T01:54:22.332Z,10.72
2019-06-01T01:56:52.144Z,10.60
2019-06-01T02:02:09.310Z,11.25
2019-06-01T02:04:38.819Z,10.32
2019-06-01T02:07:08.654Z,11.88
2019-06-01T02:09:38.020Z,12.25
2019-06-01T02:12:07.423Z,11.22
2019-06-01T02:14:36.930Z,11.22
2019-06-01T02:17:06.429Z,11.18
2019-06-01T02:19:36.586Z,10.63
2019-06-01T02:22:06.304Z,11.10
2019-06-01T02:24:35.866Z,10.90
2019-06-01T02:27:05.320Z,9.85
2019-06-01T02:29:34.852Z,10.63
2019-06-01T02:32:06.491Z,10.60
2019-06-01T02:34:35.437Z,9.80
2019-06-01T02:37:04.962Z,10.28
2019-06-01T02:39:34.463Z,9.68
2019-06-01T02:42:05.433Z,9.40
2019-06-01T02:44:35.077Z,9.40
2019-06-01T02:47:06.364Z,9.93
2019-06-01T02:49:35.842Z,8.65
2019-06-01T02:52:11.144Z,10.03
2019-06-01T02:54:40.655Z,9.60
2019-06-01T02:57:10.116Z,9.78
2019-06-01T02:59:39.648Z,10.68
2019-06-01T03:02:13.668Z,9.95
2019-06-01T03:04:42.482Z,11.30
2019-06-01T03:07:14.281Z,11.22
2019-06-01T03:09:45.692Z,10.58
2019-06-01T03:12:18.235Z,9.55
2019-06-01T03:14:49.537Z,10.88
2019-06-01T03:17:22.136Z,11.83
2019-06-01T03:19:54.479Z,11.50
2019-06-01T03:22:25.261Z,10.85
2019-06-01T03:24:57.746Z,10.58
2019-06-01T03:27:30.062Z,10.88
2019-06-01T03:30:03.422Z,9.80
2019-06-01T03:32:36.747Z,10.32
2019-06-01T03:35:06.772Z,11.28
2019-06-01T03:37:37.349Z,11.38
2019-06-01T03:40:15.869Z,11.80
2019-06-01T03:42:39.829Z,12.33
2019-06-01T03:45:09.669Z,11.30
2019-06-01T03:47:39.221Z,10.28
2019-06-01T03:50:09.812Z,12.13
2019-06-01T03:52:39.312Z,11.75
2019-06-01T03:55:09.858Z,10.43
2019-06-01T03:57:39.418Z,10.95
2019-06-01T04:00:09.369Z,11.90
2019-06-01T04:02:39.061Z,11.15
2019-06-01T04:05:09.707Z,10.32
2019-06-01T04:07:39.166Z,11.10
2019-06-01T04:10:10.029Z,11.28
2019-06-01T04:12:39.596Z,11.18
2019-06-01T04:15:12.843Z,10.40
2019-06-01T04:17:43.191Z,10.85
2019-06-01T04:20:12.827Z,11.12
2019-06-01T04:22:42.326Z,10.35
2019-06-01T04:25:12.317Z,9.98
2019-06-01T04:27:42.935Z,10.13
2019-06-01T04:30:13.694Z,9.68
2019-06-01T04:32:49.788Z,9.75
2019-06-01T04:35:14.389Z,10.75
2019-06-01T04:37:43.962Z,9.65
2019-06-01T04:40:13.693Z,10.30
2019-06-01T04:42:43.113Z,9.73
2019-06-01T04:45:13.146Z,10.05
2019-06-01T04:47:43.750Z,10.70
2019-06-01T04:50:13.437Z,10.00
2019-06-01T04:52:43.020Z,10.28
2019-06-01T04:55:13.081Z,9.25
2019-06-01T04:57:42.705Z,10.00
2019-06-01T05:00:25.753Z,11.25
2019-06-01T05:02:43.740Z,11.35
2019-06-01T05:05:15.219Z,10.45
2019-06-01T05:07:45.023Z,10.63
2019-06-01T05:10:16.051Z,11.85
2019-06-01T05:12:45.597Z,11.60
2019-06-01T05:15:16.080Z,11.70
2019-06-01T05:17:45.782Z,10.93
2019-06-01T05:20:16.650Z,11.85
2019-06-01T05:22:46.181Z,12.53
2019-06-01T05:25:16.953Z,12.03
2019-06-01T05:27:46.833Z,12.03
2019-06-01T05:30:17.649Z,11.80
2019-06-01T05:32:47.224Z,11.93
2019-06-01T05:35:17.919Z,11.20
2019-06-01T05:37:47.659Z,11.20
2019-06-01T05:40:19.631Z,12.43
2019-06-01T05:42:51.299Z,12.30
2019-06-01T05:45:22.571Z,12.18
2019-06-01T05:47:52.518Z,12.70
2019-06-01T05:50:22.688Z,11.90
2019-06-01T05:52:53.598Z,14.10
2019-06-01T05:55:23.213Z,12.93
2019-06-01T05:57:52.786Z,12.82
2019-06-01T06:00:25.300Z,13.20
2019-06-01T06:02:54.793Z,13.72
2019-06-01T06:05:24.341Z,13.05
2019-06-01T06:07:53.946Z,14.03
2019-06-01T06:10:23.446Z,13.18
2019-06-01T06:12:53.974Z,13.80
2019-06-01T06:15:23.580Z,14.40
2019-06-01T06:17:53.154Z,13.50
2019-06-01T06:20:22.752Z,15.50
2019-06-01T06:22:52.168Z,13.58
2019-06-01T06:25:21.617Z,15.43
2019-06-01T06:27:55.630Z,12.63
2019-06-01T06:30:27.356Z,13.28
2019-06-01T06:32:56.897Z,14.60
2019-06-01T06:35:26.377Z,14.58
2019-06-01T06:37:55.915Z,14.43
2019-06-01T06:40:26.802Z,14.28
2019-06-01T06:42:56.257Z,13.88
2019-06-01T06:45:25.903Z,13.83
2019-06-01T06:47:58.845Z,13.68
2019-06-01T06:52:57.302Z,14.33
2019-06-01T06:55:26.892Z,13.45
2019-06-01T06:57:56.375Z,12.73
2019-06-01T07:00:31.941Z,13.80
2019-06-01T07:03:01.560Z,13.85
2019-06-01T07:05:31.526Z,14.47
2019-06-01T07:08:01.193Z,14.98
2019-06-01T07:10:30.692Z,15.13
2019-06-01T07:13:00.227Z,15.18
2019-06-01T07:16:13.130Z,14.50
2019-06-01T07:18:43.781Z,14.15
2019-06-01T07:21:13.335Z,15.32
2019-06-01T07:23:42.945Z,13.88
2019-06-01T07:26:16.324Z,14.45
2019-06-01T07:28:50.043Z,14.15
2019-06-01T07:31:20.083Z,14.00
2019-06-01T07:33:49.764Z,13.78
2019-06-01T07:36:20.255Z,14.73
2019-06-01T07:38:50.833Z,14.20
2019-06-01T07:41:20.703Z,14.15
2019-06-01T07:43:52.259Z,15.10
2019-06-01T07:46:22.793Z,12.82
2019-06-01T07:48:52.311Z,14.03
2019-06-01T07:51:23.119Z,12.65
2019-06-01T07:53:52.697Z,11.55
2019-06-01T07:56:22.634Z,11.28
2019-06-01T07:58:52.135Z,11.05
2019-06-01T08:01:24.605Z,10.03
2019-06-01T08:03:52.696Z,11.38
2019-06-01T08:06:23.836Z,12.23
2019-06-01T08:08:54.417Z,12.95
2019-06-01T08:11:28.552Z,10.23
2019-06-01T08:13:55.002Z,10.80
2019-06-01T08:16:25.780Z,10.88
2019-06-01T08:18:55.319Z,12.15
2019-06-01T08:21:25.949Z,11.38
2019-06-01T08:23:55.599Z,11.70
2019-06-01T08:26:26.377Z,11.45
2019-06-01T08:28:55.985Z,11.90
2019-06-01T08:31:26.546Z,11.48
2019-06-01T08:33:56.221Z,10.55
2019-06-01T08:36:25.753Z,10.65
2019-06-01T08:38:55.214Z,9.58
2019-06-01T08:41:25.505Z,10.03
2019-06-01T08:44:02.816Z,11.12
2019-06-01T08:46:33.998Z,8.60
2019-06-01T08:49:03.640Z,8.65
2019-06-01T08:51:34.104Z,9.78
2019-06-01T08:54:04.204Z,9.35
2019-06-01T08:56:38.426Z,8.88
2019-06-01T08:59:06.314Z,8.35
2019-06-01T09:01:35.777Z,7.92
2019-06-01T09:04:05.351Z,9.35
2019-06-01T09:06:35.380Z,9.18
2019-06-01T09:09:11.408Z,8.28
2019-06-01T09:11:38.817Z,7.92
2019-06-01T09:14:08.309Z,7.95
2019-06-01T09:16:37.851Z,8.10
2019-06-01T09:19:11.036Z,8.13
2019-06-01T09:21:38.680Z,7.95
2019-06-01T09:24:09.639Z,6.80
2019-06-01T09:26:39.024Z,6.53
2019-06-01T09:29:08.564Z,8.70
2019-06-01T09:31:38.169Z,7.08
2019-06-01T09:34:08.058Z,7.22
2019-06-01T09:36:40.326Z,7.22
2019-06-01T09:39:10.066Z,6.30
2019-06-01T09:41:39.476Z,6.40
2019-06-01T09:44:08.970Z,5.30
2019-06-01T09:46:38.384Z,5.78
2019-06-01T09:49:07.891Z,5.03
2019-06-01T09:51:37.795Z,5.25
2019-06-01T09:54:07.622Z,4.70
2019-06-01T09:56:38.164Z,6.35
2019-06-01T09:59:08.277Z,6.42
2019-06-01T10:01:38.932Z,4.85
2019-06-01T10:04:09.645Z,5.30
2019-06-01T10:06:40.136Z,4.55
2019-06-01T10:09:09.626Z,4.40
2019-06-01T10:11:40.691Z,5.35
2019-06-01T10:14:10.153Z,5.10
2019-06-01T10:16:39.586Z,4.53
2019-06-01T10:19:09.096Z,4.87
2019-06-01T10:21:38.551Z,5.75
2019-06-01T10:24:08.079Z,4.95
2019-06-01T10:26:37.722Z,4.92
2019-06-01T10:29:07.238Z,5.67
2019-06-01T10:31:41.069Z,5.45
2019-06-01T10:34:08.042Z,4.90
2019-06-01T10:36:38.060Z,5.65
2019-06-01T10:39:08.353Z,5.12
2019-06-01T10:41:37.762Z,5.60
2019-06-01T10:44:07.366Z,5.12
2019-06-01T10:46:37.997Z,5.15
2019-06-01T10:49:07.659Z,5.15
2019-06-01T10:51:38.244Z,6.30
2019-06-01T10:54:07.924Z,5.42
2019-06-01T10:56:38.493Z,5.80
2019-06-01T10:59:08.181Z,4.55
2019-06-01T11:01:38.824Z,4.28
2019-06-01T11:04:08.485Z,4.10
2019-06-01T11:06:45.174Z,4.22
2019-06-01T11:09:09.973Z,5.58
2019-06-01T11:11:39.473Z,5.10
2019-06-01T11:14:08.988Z,5.33
2019-06-01T11:16:39.477Z,5.80
2019-06-01T11:19:17.190Z,4.60
2019-06-01T11:21:50.369Z,4.58
2019-06-01T11:24:19.903Z,4.60
2019-06-01T11:26:49.329Z,5.10
2019-06-01T11:29:18.840Z,5.67
2019-06-01T11:31:49.436Z,4.10
2019-06-01T11:34:18.968Z,5.67
2019-06-01T11:38:36.285Z,4.97
2019-06-01T11:41:05.855Z,4.70
2019-06-01T11:43:36.400Z,4.65
2019-06-01T11:46:05.986Z,4.05
2019-06-01T11:48:37.031Z,5.17
2019-06-01T11:51:06.701Z,4.65
2019-06-01T11:53:37.301Z,3.83
2019-06-01T11:56:07.048Z,4.00
2019-06-01T11:58:37.171Z,3.00
2019-06-01T12:01:06.876Z,3.47
2019-06-01T12:03:37.680Z,4.35
2019-06-01T12:06:07.203Z,3.92
2019-06-01T12:08:38.008Z,3.98
2019-06-01T12:11:07.573Z,3.50
2019-06-01T12:13:38.065Z,3.98
2019-06-01T12:16:08.571Z,3.77
2019-06-01T12:18:38.498Z,3.02
2019-06-01T12:21:09.235Z,4.15
2019-06-01T12:23:39.022Z,4.53
2019-06-01T12:26:08.593Z,3.52
2019-06-01T12:28:39.396Z,3.72
2019-06-01T12:31:09.431Z,3.72
2019-06-01T12:33:39.885Z,4.05
2019-06-01T12:36:09.361Z,4.83
2019-06-01T12:38:54.980Z,5.20
2019-06-01T12:41:24.464Z,5.10
2019-06-01T12:44:10.605Z,3.55
2019-06-01T12:46:42.111Z,3.77
2019-06-01T12:49:11.694Z,3.62
2019-06-01T12:51:42.391Z,4.20
2019-06-01T12:54:12.107Z,4.20
2019-06-01T12:56:42.883Z,3.83
2019-06-01T12:59:22.455Z,2.77
2019-06-01T13:01:51.388Z,3.20
2019-06-01T13:04:20.983Z,3.52
2019-06-01T13:06:52.552Z,3.72
2019-06-01T13:09:24.214Z,3.27
2019-06-01T13:11:53.601Z,3.27
2019-06-01T13:14:23.419Z,2.95
2019-06-01T13:17:06.250Z,3.17
2019-06-01T13:19:25.134Z,3.30
2019-06-01T13:21:54.648Z,3.58
2019-06-01T13:24:26.424Z,4.30
2019-06-01T13:26:56.223Z,3.90
2019-06-01T13:29:25.725Z,4.08
2019-06-01T13:31:55.198Z,3.30
2019-06-01T13:34:24.667Z,3.55
2019-06-01T13:36:54.073Z,5.90
2019-06-01T13:39:43.033Z,5.45
2019-06-01T13:42:12.502Z,5.37
2019-06-01T13:44:43.250Z,6.03
2019-06-01T13:47:12.908Z,7.22
2019-06-01T13:49:44.301Z,8.10
2019-06-01T13:52:13.592Z,6.42
2019-06-01T13:54:44.072Z,7.15
2019-06-01T13:57:15.874Z,8.20
2019-06-01T13:59:46.880Z,7.67
2019-06-01T14:02:16.641Z,7.53
2019-06-01T14:04:47.508Z,7.03
2019-06-01T14:07:32.697Z,7.35
2019-06-01T14:09:58.809Z,9.50
2019-06-01T14:12:28.368Z,7.83
2019-06-01T14:14:57.824Z,8.75
2019-06-01T14:17:27.285Z,8.70
2019-06-01T14:20:01.770Z,8.33
2019-06-01T14:22:31.195Z,7.15
2019-06-01T14:25:12.338Z,8.45
2019-06-01T14:27:31.826Z,6.83
2019-06-01T14:30:01.341Z,9.18
2019-06-01T14:32:33.469Z,7.45
2019-06-01T14:35:03.066Z,7.83
2019-06-01T14:37:32.495Z,7.30
2019-06-01T14:40:03.451Z,6.58
2019-06-01T14:42:32.865Z,8.60
2019-06-01T14:45:02.375Z,7.97
2019-06-01T14:47:31.786Z,7.15
2019-06-01T14:50:02.467Z,6.80
2019-06-01T14:52:35.117Z,7.45
2019-06-01T14:55:03.229Z,6.40
2019-06-01T14:57:32.682Z,6.58
2019-06-01T15:00:02.198Z,7.42
2019-06-01T15:02:31.709Z,6.70
2019-06-01T15:05:01.173Z,6.30
2019-06-01T15:07:30.627Z,6.20
2019-06-01T15:10:00.006Z,5.55
2019-06-01T15:12:29.468Z,5.40
2019-06-01T15:14:59.582Z,5.53
2019-06-01T15:17:29.071Z,5.00
2019-06-01T15:19:58.510Z,5.28
2019-06-01T15:22:27.974Z,5.37
2019-06-01T15:24:58.455Z,4.90
2019-06-01T15:27:28.996Z,6.15
2019-06-01T15:29:58.984Z,4.97
2019-06-01T15:32:28.580Z,5.33
2019-06-01T15:34:59.843Z,4.60
2019-06-01T15:37:30.275Z,5.10
2019-06-01T15:40:00.025Z,5.30
2019-06-01T15:42:29.564Z,5.03
2019-06-01T15:44:59.298Z,4.75
2019-06-01T15:47:28.874Z,4.78
2019-06-01T15:49:58.296Z,4.80
2019-06-01T15:52:28.894Z,5.37
2019-06-01T15:54:58.390Z,4.47
2019-06-01T15:57:27.790Z,4.95
2019-06-01T15:59:57.162Z,4.95
2019-06-01T16:02:26.576Z,4.65
2019-06-01T16:04:57.023Z,4.22
2019-06-01T16:07:26.758Z,4.62
2019-06-01T16:09:57.390Z,14.85
2019-06-01T16:12:32.637Z,5.80
2019-06-01T16:15:02.198Z,5.35
2019-06-01T16:17:32.421Z,5.00
2019-06-01T16:20:02.397Z,4.42
2019-06-01T16:22:33.866Z,4.50
2019-06-01T16:25:04.386Z,5.20
2019-06-01T16:27:33.957Z,4.22
2019-06-01T16:30:08.160Z,4.95
2019-06-01T16:32:39.525Z,4.62
2019-06-01T16:35:09.535Z,5.62
2019-06-01T16:37:39.195Z,4.97
2019-06-01T16:40:11.109Z,4.67
2019-06-01T16:42:43.776Z,4.20
2019-06-01T16:45:13.765Z,5.00
2019-06-01T16:47:44.473Z,5.45
2019-06-01T16:50:14.319Z,5.45
2019-06-01T16:52:43.836Z,4.67
2019-06-01T16:55:13.388Z,4.25
2019-06-01T16:57:42.915Z,4.10
2019-06-01T17:00:14.277Z,4.33
2019-06-01T17:02:43.883Z,4.67
2019-06-01T17:05:13.922Z,3.98
2019-06-01T17:07:43.413Z,4.05
2019-06-01T17:10:25.530Z,4.58
2019-06-01T17:12:45.565Z,3.62
2019-06-01T17:15:15.413Z,4.28
2019-06-01T17:17:46.277Z,4.03
2019-06-01T17:20:38.167Z,3.72
2019-06-01T17:23:24.307Z,3.33
2019-06-01T17:25:39.513Z,3.33
2019-06-01T17:28:09.369Z,3.70
2019-06-01T17:30:39.044Z,4.05
2019-06-01T17:33:08.688Z,3.65
2019-06-01T17:35:38.327Z,3.17
2019-06-01T17:38:09.057Z,3.22
2019-06-01T17:40:42.789Z,2.60
2019-06-01T17:43:10.035Z,2.92
2019-06-01T17:45:39.509Z,3.00
2019-06-01T17:48:21.871Z,2.50
2019-06-01T17:50:40.349Z,2.77
2019-06-01T17:53:09.791Z,2.30
2019-06-01T17:55:39.759Z,2.10
2019-06-01T17:58:12.240Z,2.05
2019-06-01T18:00:41.993Z,2.10
2019-06-01T18:03:12.105Z,2.05
2019-06-01T18:05:43.946Z,2.17
2019-06-01T18:08:14.683Z,1.62
2019-06-01T18:10:54.095Z,1.75
2019-06-01T18:13:15.566Z,1.67
2019-06-01T18:15:44.975Z,1.70
2019-06-01T18:18:14.479Z,1.87
2019-06-01T18:20:44.050Z,1.67
2019-06-01T18:23:13.557Z,1.95
2019-06-01T18:25:44.570Z,1.90
2019-06-01T18:28:18.578Z,1.87
2019-06-01T18:30:46.322Z,2.22
2019-06-01T18:33:15.981Z,1.90
2019-06-01T18:35:45.464Z,1.87
2019-06-01T18:38:15.023Z,2.17
2019-06-01T18:40:44.805Z,2.00
2019-06-01T18:43:18.093Z,2.55
2019-06-01T18:45:48.403Z,1.70
2019-06-01T18:48:18.934Z,2.08
2019-06-01T18:50:48.524Z,1.90
2019-06-01T18:53:18.319Z,2.10
2019-06-01T18:55:47.841Z,1.85
2019-06-01T18:58:17.326Z,2.27
2019-06-01T19:00:47.093Z,2.00
2019-06-01T19:03:16.632Z,1.98
2019-06-01T19:05:46.274Z,2.10
2019-06-01T19:08:16.263Z,1.90
2019-06-01T19:10:46.245Z,1.77
2019-06-01T19:13:16.525Z,2.05
2019-06-01T19:15:48.690Z,2.17
2019-06-01T19:18:18.129Z,2.17
2019-06-01T19:20:47.524Z,2.35
2019-06-01T19:23:22.083Z,2.67
2019-06-01T19:25:49.879Z,2.47
2019-06-01T19:28:23.773Z,2.47
2019-06-01T19:30:53.570Z,2.25
2019-06-01T19:33:26.663Z,2.40
2019-06-01T19:36:01.940Z,2.58
2019-06-01T19:38:32.539Z,2.42
2019-06-01T19:41:02.276Z,2.50
2019-06-01T19:43:31.891Z,2.27
2019-06-01T19:46:03.506Z,2.83
2019-06-01T19:48:33.208Z,2.80
2019-06-01T19:51:03.019Z,3.33
2019-06-01T19:53:32.561Z,2.60
2019-06-01T19:56:06.102Z,2.83
2019-06-01T19:58:35.607Z,2.90
2019-06-01T20:01:05.391Z,2.50
2019-06-01T20:03:35.076Z,3.15
2019-06-01T20:06:04.578Z,3.20
2019-06-01T20:08:39.993Z,3.17
2019-06-01T20:11:09.496Z,2.95
2019-06-01T20:13:39.042Z,2.83
2019-06-01T20:16:10.528Z,3.22
2019-06-01T20:18:40.180Z,2.80
2019-06-01T20:21:09.785Z,2.80
2019-06-01T20:23:39.438Z,3.22
2019-06-01T20:26:17.582Z,3.02
2019-06-01T20:28:50.036Z,3.47
2019-06-01T20:31:19.952Z,3.65
2019-06-01T20:33:55.494Z,3.47
2019-06-01T20:36:27.707Z,3.10
2019-06-01T20:38:57.380Z,3.90
2019-06-01T20:41:28.117Z,3.35
2019-06-01T20:43:57.637Z,3.47
2019-06-01T20:46:27.170Z,3.47
2019-06-01T20:48:56.687Z,3.20
2019-06-01T20:51:27.804Z,2.87
2019-06-01T20:53:57.341Z,3.50
2019-06-01T20:56:28.374Z,3.05
2019-06-01T20:58:57.937Z,2.75
2019-06-01T21:01:27.548Z,3.17
2019-06-01T21:04:04.003Z,3.65
2019-06-01T21:06:35.630Z,3.10
2019-06-01T21:09:08.178Z,3.20
2019-06-01T21:11:37.840Z,3.08
2019-06-01T21:16:54.963Z,2.92
2019-06-01T21:19:26.112Z,3.42
2019-06-01T21:21:55.607Z,3.30
2019-06-01T21:24:25.250Z,3.30
2019-06-01T21:26:54.860Z,3.02
2019-06-01T21:29:25.184Z,3.10
2019-06-01T21:32:00.677Z,3.22
2019-06-01T21:34:30.076Z,3.30
2019-06-01T21:36:59.556Z,3.08
2019-06-01T21:39:28.931Z,3.27
2019-06-01T21:41:58.436Z,3.08
2019-06-01T21:44:27.883Z,3.17
2019-06-01T21:46:57.362Z,2.85
2019-06-01T21:49:26.827Z,3.45
2019-06-01T21:51:56.287Z,3.20
2019-06-01T21:54:26.364Z,2.65
2019-06-01T21:56:55.921Z,3.30
2019-06-01T21:59:25.381Z,3.90
2019-06-01T22:01:54.824Z,3.50
2019-06-01T22:04:25.563Z,3.35
2019-06-01T22:06:56.150Z,3.10
2019-06-01T22:09:27.468Z,3.12
2019-06-01T22:11:57.024Z,3.10
2019-06-01T22:14:27.668Z,3.72
2019-06-01T22:16:57.246Z,3.45
2019-06-01T22:19:27.902Z,3.00
2019-06-01T22:21:57.546Z,3.42
2019-06-01T22:24:28.192Z,2.98
2019-06-01T22:26:57.778Z,3.20
2019-06-01T22:29:28.490Z,3.52
2019-06-01T22:31:59.246Z,3.50
2019-06-01T22:34:29.303Z,3.30
2019-06-01T22:36:58.906Z,2.72
2019-06-01T22:39:32.390Z,3.55
2019-06-01T22:42:01.850Z,3.47
2019-06-01T22:44:33.253Z,3.20
2019-06-01T22:47:02.499Z,3.90
2019-06-01T22:49:32.989Z,3.45
2019-06-01T22:52:02.419Z,3.37
2019-06-01T22:54:31.872Z,3.15
2019-06-01T22:57:01.278Z,3.12
2019-06-01T22:59:30.812Z,3.70
2019-06-01T23:02:00.390Z,3.80
2019-06-01T23:04:31.284Z,2.90
2019-06-01T23:07:00.920Z,3.75
2019-06-01T23:09:31.590Z,3.20
2019-06-01T23:12:01.053Z,3.12
2019-06-01T23:14:31.504Z,3.40
2019-06-01T23:17:01.008Z,3.25
2019-06-01T23:19:30.464Z,3.27
2019-06-01T23:21:59.927Z,3.67
2019-06-01T23:24:30.288Z,3.12
2019-06-01T23:26:59.854Z,3.15
2019-06-01T23:29:30.249Z,3.50
2019-06-01T23:32:00.875Z,3.67
2019-06-01T23:34:30.691Z,3.20
2019-06-01T23:37:00.966Z,3.17
2019-06-01T23:39:30.800Z,3.60
2019-06-01T23:42:00.382Z,3.60
2019-06-01T23:44:33.256Z,2.87
2019-06-01T23:47:00.990Z,3.27
2019-06-01T23:49:31.352Z,2.83
2019-06-01T23:52:01.786Z,3.27
2019-06-01T23:54:32.475Z,2.80
2019-06-01T23:57:02.177Z,3.17
2019-06-01T23:59:32.542Z,3.00
